Terminal Aerodrome Forecast
Issued by NWS Twin Cities, MN

Home | Current Version | Previous Version | Graphics & Text | Print | Product List | Glossary On
Versions: 1 2 3 4 5 6 7 8 9 10 11 12
006
FTUS43 KMPX 180520
TAFSTC
TAF
KSTC 180520Z 1806/1906 20007KT P6SM SKC
     FM180700 20005KT P6SM FEW250 WS020/23035KT
     FM181400 21010KT P6SM SCT250
     FM181700 25013G20KT P6SM SCT250
     FM182000 29014G22KT P6SM FEW250
     FM190100 29005KT P6SM FEW250=

USA.gov is the U.S. government's official web portal to all federal, state and local government web resources and services.